Terminal Aerodrome Forecast
Issued by NWS

Home | Current Version | Previous Version | Graphics & Text | Print | Product List | Glossary On
Versions: 1 2 3 4 5 6 7 8 9 10 11 12 13 14
000
FTUS43 KTOP 160424 AAB
TAFMHK
TAF AMD
KMHK 160424Z 1604/1624 36013G25KT P6SM BKN019 OVC080
     FM160700 36015G24KT P6SM SCT025 OVC080
     FM161300 36010KT P6SM SCT200=

USA.gov is the U.S. government's official web portal to all federal, state and local government web resources and services.